createdAt,value
2024-04-04T00:12:44.030Z,1132
2024-04-04T00:18:14.850Z,1168
2024-04-04T00:23:45.077Z,1183
2024-04-04T00:29:15.579Z,1197
2024-04-04T00:34:45.032Z,1179
2024-04-04T00:40:15.517Z,1165
2024-04-04T00:45:46.185Z,1178
2024-04-04T00:51:16.598Z,1165
2024-04-04T00:56:47.094Z,1119
2024-04-04T01:07:48.182Z,1149
2024-04-04T01:13:18.653Z,1142
2024-04-04T01:18:49.472Z,1158
2024-04-04T01:24:19.882Z,1157
2024-04-04T01:29:50.349Z,1124
2024-04-04T01:35:20.941Z,1117
2024-04-04T01:40:50.433Z,1079
2024-04-04T01:46:20.925Z,1075
2024-04-04T01:51:51.456Z,1130
2024-04-04T01:57:20.884Z,1147
2024-04-04T02:02:51.353Z,1117
2024-04-04T02:08:21.938Z,1086
2024-04-04T02:19:22.973Z,1073
2024-04-04T02:24:53.580Z,1061
2024-04-04T02:30:24.023Z,1023
2024-04-04T02:35:54.515Z,1009
2024-04-04T02:41:24.017Z,1023
2024-04-04T02:46:54.491Z,1082
2024-04-04T02:52:24.967Z,1058
2024-04-04T02:57:54.491Z,1042
2024-04-04T03:03:24.911Z,1021
2024-04-04T03:08:55.387Z,1004
2024-04-04T03:14:25.988Z,1001
2024-04-04T03:19:56.556Z,997
2024-04-04T03:25:27.140Z,990
2024-04-04T03:30:57.648Z,987
2024-04-04T03:36:28.077Z,984
2024-04-04T03:47:29.210Z,970
2024-04-04T03:52:59.664Z,966
2024-04-04T03:58:30.252Z,963
2024-04-04T04:04:00.771Z,960
2024-04-04T04:09:31.175Z,951
2024-04-04T04:15:00.658Z,951
2024-04-04T04:20:31.188Z,946
2024-04-04T04:26:01.628Z,941
2024-04-04T04:31:31.113Z,946
2024-04-04T04:37:01.597Z,934
2024-04-04T04:42:31.085Z,933
2024-04-04T04:48:01.535Z,926
2024-04-04T04:53:32.024Z,928
2024-04-04T04:59:02.635Z,924
2024-04-04T05:04:33.077Z,900
2024-04-04T05:10:03.717Z,898
2024-04-04T05:15:34.173Z,866
2024-04-04T05:21:04.668Z,873
2024-04-04T05:32:04.640Z,850
2024-04-04T05:37:35.078Z,867
2024-04-04T05:43:05.703Z,874
2024-04-04T05:48:36.150Z,871
2024-04-04T05:54:06.643Z,865
2024-04-04T05:59:37.257Z,852
2024-04-04T06:05:07.717Z,850
2024-04-04T06:10:38.290Z,834
2024-04-04T06:16:08.781Z,817
2024-04-04T06:21:39.235Z,819
2024-04-04T06:27:09.854Z,811
2024-04-04T06:32:40.326Z,785
2024-04-04T06:43:41.423Z,774
2024-04-04T06:49:11.890Z,782
2024-04-04T06:54:42.382Z,757
2024-04-04T07:00:11.864Z,751
2024-04-04T07:05:42.347Z,732
2024-04-04T07:11:11.828Z,727
2024-04-04T07:16:42.358Z,722
2024-04-04T07:22:12.786Z,720
2024-04-04T07:27:43.386Z,711
2024-04-04T07:33:13.845Z,702
2024-04-04T07:38:44.426Z,699
2024-04-04T07:49:45.481Z,682
2024-04-04T07:55:15.937Z,674
2024-04-04T08:00:45.542Z,676
2024-04-04T08:06:15.941Z,671
2024-04-04T08:22:46.456Z,662
2024-04-04T08:28:15.840Z,657
2024-04-04T08:33:46.321Z,651
2024-04-04T08:39:16.895Z,650
2024-04-04T08:44:47.399Z,642
2024-04-04T08:55:48.467Z,645
2024-04-04T09:01:29.969Z,670
2024-04-04T09:12:19.030Z,683
2024-04-04T09:17:49.501Z,686
2024-04-04T09:23:20.074Z,683
2024-04-04T09:28:50.570Z,683
2024-04-04T09:34:21.023Z,685
2024-04-04T09:39:51.632Z,687
2024-04-04T09:45:22.108Z,687
2024-04-04T09:50:51.596Z,682
2024-04-04T09:56:22.080Z,687
2024-04-04T10:07:22.039Z,667
2024-04-04T10:12:52.522Z,668
2024-04-04T10:18:22.972Z,667
2024-04-04T10:23:52.600Z,672
2024-04-04T10:29:30.860Z,652
2024-04-04T10:34:53.564Z,653
2024-04-04T10:40:23.045Z,645
2024-04-04T10:45:53.533Z,648
2024-04-04T10:51:24.009Z,648
2024-04-04T10:56:54.605Z,648
2024-04-04T11:07:54.566Z,633
2024-04-04T11:13:25.055Z,637
2024-04-04T11:18:56.079Z,641
2024-04-04T11:24:26.107Z,641
2024-04-04T11:29:56.564Z,642
2024-04-04T11:35:27.065Z,625
2024-04-04T11:40:57.651Z,635
2024-04-04T11:46:28.102Z,633
2024-04-04T11:57:29.202Z,630
2024-04-04T12:02:59.706Z,634
2024-04-04T12:08:30.328Z,637
2024-04-04T12:14:00.761Z,635
2024-04-04T12:19:31.226Z,633
2024-04-04T12:25:01.847Z,636
2024-04-04T12:30:32.331Z,634
2024-04-04T12:36:02.896Z,638
2024-04-04T12:47:02.912Z,638
2024-04-04T12:52:33.383Z,636
2024-04-04T12:58:03.861Z,637
2024-04-04T13:03:33.353Z,635
2024-04-04T13:09:03.820Z,635
2024-04-04T13:14:33.313Z,631
2024-04-04T13:20:03.808Z,632
2024-04-04T13:25:34.346Z,632
2024-04-04T13:31:04.954Z,637
2024-04-04T13:36:35.530Z,635
2024-04-04T13:42:05.889Z,631
2024-04-04T13:47:36.502Z,631
2024-04-04T13:53:06.953Z,632
2024-04-04T13:58:37.533Z,632
2024-04-04T14:09:38.500Z,641
2024-04-04T14:15:07.976Z,624
2024-04-04T14:20:38.445Z,622
2024-04-04T14:26:08.928Z,615
2024-04-04T14:31:38.439Z,608
2024-04-04T14:37:09.972Z,600
2024-04-04T14:42:38.415Z,602
2024-04-04T14:48:08.947Z,603
2024-04-04T14:53:39.421Z,594
2024-04-04T14:59:09.990Z,568
2024-04-04T15:04:40.527Z,558
2024-04-04T15:10:10.999Z,550
2024-04-04T15:15:41.552Z,551
2024-04-04T15:21:12.040Z,564
2024-04-04T15:26:42.603Z,559
2024-04-04T15:32:13.069Z,566
2024-04-04T15:37:43.549Z,560
2024-04-04T15:43:14.286Z,563
2024-04-04T15:48:44.776Z,557
2024-04-04T16:05:16.298Z,592
2024-04-04T16:10:46.803Z,603
2024-04-04T16:16:17.433Z,608
2024-04-04T16:21:47.865Z,624
2024-04-04T16:27:18.474Z,636
2024-04-04T16:32:48.959Z,640
2024-04-04T16:38:19.465Z,651
2024-04-04T16:43:50.100Z,654
2024-04-04T16:49:20.540Z,658
2024-04-04T16:54:50.990Z,667
2024-04-04T17:00:20.494Z,670
2024-04-04T17:05:50.956Z,672
2024-04-04T17:11:20.450Z,665
2024-04-04T17:16:50.933Z,648
2024-04-04T17:22:21.431Z,652
2024-04-04T17:27:50.906Z,653
2024-04-04T17:33:21.387Z,654
2024-04-04T17:38:51.860Z,647
2024-04-04T17:44:21.363Z,654
2024-04-04T17:49:51.843Z,653
2024-04-04T17:55:22.364Z,655
2024-04-04T18:00:52.908Z,659
2024-04-04T18:06:23.417Z,646
2024-04-04T18:11:54.009Z,641
2024-04-04T18:17:24.498Z,633
2024-04-04T18:22:54.950Z,624
2024-04-04T18:28:25.583Z,629
2024-04-04T18:33:56.163Z,633
2024-04-04T18:39:26.626Z,621
2024-04-04T18:44:57.216Z,628
2024-04-04T18:50:27.812Z,622
2024-04-04T18:55:58.156Z,617
2024-04-04T19:01:28.923Z,629
2024-04-04T19:06:59.343Z,632
2024-04-04T19:12:29.932Z,636
2024-04-04T19:18:00.396Z,632
2024-04-04T19:23:30.881Z,634
2024-04-04T19:29:00.375Z,660
2024-04-04T19:34:30.910Z,770
2024-04-04T19:40:01.337Z,875
2024-04-04T19:45:31.914Z,910
2024-04-04T19:51:02.401Z,919
2024-04-04T19:56:32.878Z,929
2024-04-04T20:02:03.481Z,989
2024-04-04T20:07:34.001Z,991
2024-04-04T20:13:03.770Z,1006
2024-04-04T20:18:33.937Z,1016
2024-04-04T20:29:34.983Z,1078
2024-04-04T20:35:05.454Z,1023
2024-04-04T20:40:36.042Z,1041
2024-04-04T20:46:06.519Z,1064
2024-04-04T20:51:36.985Z,1082
2024-04-04T20:57:07.605Z,1090
2024-04-04T21:02:38.089Z,1080
2024-04-04T21:08:08.546Z,1122
2024-04-04T21:13:39.124Z,1101
2024-04-04T21:19:09.615Z,1099
2024-04-04T21:24:40.144Z,1037
2024-04-04T21:35:41.224Z,1110
2024-04-04T21:41:10.733Z,1142
2024-04-04T21:52:11.685Z,1175
2024-04-04T21:57:42.272Z,1175
2024-04-04T22:03:12.760Z,1173
2024-04-04T22:08:45.746Z,1198
2024-04-04T22:14:13.967Z,1228
2024-04-04T22:19:44.448Z,1225
2024-04-04T22:25:14.913Z,1221
2024-04-04T22:30:44.436Z,1216
2024-04-04T22:36:14.872Z,1207
2024-04-04T22:41:45.366Z,1218
2024-04-04T22:47:16.055Z,1207
2024-04-04T22:52:46.560Z,1217
2024-04-04T22:58:16.034Z,1213
2024-04-04T23:03:46.481Z,1217
2024-04-04T23:09:16.942Z,1218
2024-04-04T23:14:46.456Z,1231
2024-04-04T23:20:16.951Z,1238
2024-04-04T23:25:47.390Z,1251
2024-04-04T23:31:18.008Z,1299
2024-04-04T23:42:18.971Z,1309
2024-04-04T23:47:48.457Z,1272
2024-04-04T23:53:19.060Z,1311
2024-04-04T23:58:49.512Z,1333
